sensor_id;sensor_type;location;lat;lon;timestamp;P1;durP1;ratioP1;P2;durP2;ratioP2
62258;SDS011;48241;48.824;10.102;2022-08-19T00:01:49;14.95;;;13.55;;
62258;SDS011;48241;48.824;10.102;2022-08-19T00:04:17;15.18;;;13.82;;
62258;SDS011;48241;48.824;10.102;2022-08-19T00:06:44;15.20;;;13.70;;
62258;SDS011;48241;48.824;10.102;2022-08-19T00:09:12;15.77;;;14.18;;
62258;SDS011;48241;48.824;10.102;2022-08-19T00:11:41;16.55;;;14.88;;
62258;SDS011;48241;48.824;10.102;2022-08-19T00:14:09;16.45;;;14.35;;
62258;SDS011;48241;48.824;10.102;2022-08-19T00:16:37;16.80;;;15.20;;
62258;SDS011;48241;48.824;10.102;2022-08-19T00:19:03;17.48;;;15.68;;
62258;SDS011;48241;48.824;10.102;2022-08-19T00:21:29;18.55;;;16.65;;
62258;SDS011;48241;48.824;10.102;2022-08-19T00:23:56;19.23;;;17.33;;
62258;SDS011;48241;48.824;10.102;2022-08-19T00:26:23;20.13;;;18.23;;
62258;SDS011;48241;48.824;10.102;2022-08-19T00:28:49;20.30;;;18.33;;
62258;SDS011;48241;48.824;10.102;2022-08-19T00:31:15;20.35;;;18.20;;
62258;SDS011;48241;48.824;10.102;2022-08-19T00:33:41;20.92;;;18.73;;
62258;SDS011;48241;48.824;10.102;2022-08-19T00:36:08;22.45;;;20.25;;
62258;SDS011;48241;48.824;10.102;2022-08-19T00:38:35;22.55;;;20.15;;
62258;SDS011;48241;48.824;10.102;2022-08-19T00:41:02;22.88;;;20.52;;
62258;SDS011;48241;48.824;10.102;2022-08-19T00:43:29;21.90;;;19.83;;
62258;SDS011;48241;48.824;10.102;2022-08-19T00:45:55;23.10;;;20.88;;
62258;SDS011;48241;48.824;10.102;2022-08-19T00:48:21;23.52;;;21.08;;
62258;SDS011;48241;48.824;10.102;2022-08-19T00:50:48;23.85;;;21.58;;
62258;SDS011;48241;48.824;10.102;2022-08-19T00:53:20;24.15;;;21.65;;
62258;SDS011;48241;48.824;10.102;2022-08-19T00:55:51;24.75;;;22.25;;
62258;SDS011;48241;48.824;10.102;2022-08-19T00:58:20;23.42;;;21.13;;
62258;SDS011;48241;48.824;10.102;2022-08-19T01:00:49;24.80;;;22.25;;
62258;SDS011;48241;48.824;10.102;2022-08-19T01:03:16;24.75;;;22.15;;
62258;SDS011;48241;48.824;10.102;2022-08-19T01:05:44;25.13;;;22.63;;
62258;SDS011;48241;48.824;10.102;2022-08-19T01:08:12;24.60;;;22.10;;
62258;SDS011;48241;48.824;10.102;2022-08-19T01:10:42;25.27;;;22.70;;
62258;SDS011;48241;48.824;10.102;2022-08-19T01:13:13;24.73;;;22.23;;
62258;SDS011;48241;48.824;10.102;2022-08-19T01:15:43;25.42;;;22.75;;
62258;SDS011;48241;48.824;10.102;2022-08-19T01:18:14;25.10;;;22.60;;
62258;SDS011;48241;48.824;10.102;2022-08-19T01:20:41;25.35;;;22.85;;
62258;SDS011;48241;48.824;10.102;2022-08-19T01:23:07;25.27;;;22.63;;
62258;SDS011;48241;48.824;10.102;2022-08-19T01:25:39;24.23;;;21.92;;
62258;SDS011;48241;48.824;10.102;2022-08-19T01:28:14;23.52;;;21.02;;
62258;SDS011;48241;48.824;10.102;2022-08-19T01:30:50;23.52;;;21.20;;
62258;SDS011;48241;48.824;10.102;2022-08-19T01:33:18;23.23;;;20.83;;
62258;SDS011;48241;48.824;10.102;2022-08-19T01:35:44;23.48;;;21.17;;
62258;SDS011;48241;48.824;10.102;2022-08-19T01:38:19;23.25;;;21.02;;
62258;SDS011;48241;48.824;10.102;2022-08-19T01:40:48;24.05;;;21.58;;
62258;SDS011;48241;48.824;10.102;2022-08-19T01:43:14;24.92;;;22.42;;
62258;SDS011;48241;48.824;10.102;2022-08-19T01:45:40;25.35;;;22.75;;
62258;SDS011;48241;48.824;10.102;2022-08-19T01:48:07;24.08;;;21.67;;
62258;SDS011;48241;48.824;10.102;2022-08-19T01:50:34;23.55;;;21.35;;
62258;SDS011;48241;48.824;10.102;2022-08-19T01:53:00;24.00;;;21.60;;
62258;SDS011;48241;48.824;10.102;2022-08-19T01:55:28;23.33;;;20.92;;
62258;SDS011;48241;48.824;10.102;2022-08-19T01:57:55;23.38;;;21.05;;
62258;SDS011;48241;48.824;10.102;2022-08-19T02:00:25;24.23;;;21.77;;
62258;SDS011;48241;48.824;10.102;2022-08-19T02:02:54;24.67;;;22.23;;
62258;SDS011;48241;48.824;10.102;2022-08-19T02:05:19;23.90;;;21.58;;
62258;SDS011;48241;48.824;10.102;2022-08-19T02:07:46;23.20;;;20.77;;
62258;SDS011;48241;48.824;10.102;2022-08-19T02:10:20;24.30;;;21.80;;
62258;SDS011;48241;48.824;10.102;2022-08-19T02:12:47;23.30;;;20.88;;
62258;SDS011;48241;48.824;10.102;2022-08-19T02:15:14;23.60;;;21.25;;
62258;SDS011;48241;48.824;10.102;2022-08-19T02:17:40;24.45;;;21.83;;
62258;SDS011;48241;48.824;10.102;2022-08-19T02:20:06;23.95;;;21.58;;
62258;SDS011;48241;48.824;10.102;2022-08-19T02:22:32;23.17;;;21.00;;
62258;SDS011;48241;48.824;10.102;2022-08-19T02:24:58;24.10;;;21.60;;
62258;SDS011;48241;48.824;10.102;2022-08-19T02:27:24;24.55;;;22.08;;
62258;SDS011;48241;48.824;10.102;2022-08-19T02:29:51;24.30;;;21.80;;
62258;SDS011;48241;48.824;10.102;2022-08-19T02:32:17;24.52;;;22.08;;
62258;SDS011;48241;48.824;10.102;2022-08-19T02:34:46;25.05;;;22.45;;
62258;SDS011;48241;48.824;10.102;2022-08-19T02:37:13;24.38;;;21.35;;
62258;SDS011;48241;48.824;10.102;2022-08-19T02:39:58;23.85;;;21.27;;
62258;SDS011;48241;48.824;10.102;2022-08-19T02:42:24;24.77;;;22.20;;
62258;SDS011;48241;48.824;10.102;2022-08-19T02:44:49;23.33;;;21.02;;
62258;SDS011;48241;48.824;10.102;2022-08-19T02:47:16;24.15;;;21.75;;
62258;SDS011;48241;48.824;10.102;2022-08-19T02:49:43;25.73;;;22.92;;
62258;SDS011;48241;48.824;10.102;2022-08-19T02:52:10;22.90;;;20.60;;
62258;SDS011;48241;48.824;10.102;2022-08-19T02:54:36;23.40;;;21.08;;
62258;SDS011;48241;48.824;10.102;2022-08-19T02:57:03;24.45;;;22.13;;
62258;SDS011;48241;48.824;10.102;2022-08-19T02:59:30;26.05;;;23.38;;
62258;SDS011;48241;48.824;10.102;2022-08-19T03:01:55;24.27;;;21.77;;
62258;SDS011;48241;48.824;10.102;2022-08-19T03:04:21;25.30;;;22.63;;
62258;SDS011;48241;48.824;10.102;2022-08-19T03:06:48;26.20;;;23.60;;
62258;SDS011;48241;48.824;10.102;2022-08-19T03:09:13;26.75;;;24.10;;
62258;SDS011;48241;48.824;10.102;2022-08-19T03:11:40;28.05;;;25.15;;
62258;SDS011;48241;48.824;10.102;2022-08-19T03:14:07;28.92;;;25.88;;
62258;SDS011;48241;48.824;10.102;2022-08-19T03:16:40;28.20;;;25.20;;
62258;SDS011;48241;48.824;10.102;2022-08-19T03:19:15;27.83;;;25.17;;
62258;SDS011;48241;48.824;10.102;2022-08-19T03:21:42;29.88;;;26.85;;
62258;SDS011;48241;48.824;10.102;2022-08-19T03:24:10;30.00;;;26.63;;
62258;SDS011;48241;48.824;10.102;2022-08-19T03:26:40;29.95;;;27.00;;
62258;SDS011;48241;48.824;10.102;2022-08-19T03:29:08;30.42;;;27.40;;
62258;SDS011;48241;48.824;10.102;2022-08-19T03:31:36;29.02;;;26.13;;
62258;SDS011;48241;48.824;10.102;2022-08-19T03:34:02;29.98;;;27.02;;
62258;SDS011;48241;48.824;10.102;2022-08-19T03:36:28;29.73;;;26.63;;
62258;SDS011;48241;48.824;10.102;2022-08-19T03:38:55;30.10;;;27.15;;
62258;SDS011;48241;48.824;10.102;2022-08-19T03:41:24;31.25;;;28.08;;
62258;SDS011;48241;48.824;10.102;2022-08-19T03:43:55;31.88;;;28.58;;
62258;SDS011;48241;48.824;10.102;2022-08-19T03:46:22;30.55;;;27.50;;
62258;SDS011;48241;48.824;10.102;2022-08-19T03:48:51;32.85;;;29.45;;
62258;SDS011;48241;48.824;10.102;2022-08-19T03:51:22;33.90;;;30.30;;
62258;SDS011;48241;48.824;10.102;2022-08-19T03:53:53;34.97;;;31.17;;
62258;SDS011;48241;48.824;10.102;2022-08-19T03:56:19;33.88;;;30.27;;
62258;SDS011;48241;48.824;10.102;2022-08-19T03:58:46;34.97;;;31.02;;
62258;SDS011;48241;48.824;10.102;2022-08-19T04:01:14;32.92;;;29.52;;
62258;SDS011;48241;48.824;10.102;2022-08-19T04:03:42;34.17;;;30.48;;
62258;SDS011;48241;48.824;10.102;2022-08-19T04:08:40;32.85;;;29.33;;
62258;SDS011;48241;48.824;10.102;2022-08-19T04:11:18;33.97;;;30.38;;
62258;SDS011;48241;48.824;10.102;2022-08-19T04:13:49;32.60;;;29.13;;
62258;SDS011;48241;48.824;10.102;2022-08-19T04:16:20;32.85;;;29.35;;
62258;SDS011;48241;48.824;10.102;2022-08-19T04:18:48;34.40;;;30.77;;
62258;SDS011;48241;48.824;10.102;2022-08-19T04:21:18;33.10;;;29.58;;
62258;SDS011;48241;48.824;10.102;2022-08-19T04:23:47;33.85;;;30.30;;
62258;SDS011;48241;48.824;10.102;2022-08-19T04:26:17;33.45;;;29.88;;
62258;SDS011;48241;48.824;10.102;2022-08-19T04:28:45;33.55;;;30.05;;
62258;SDS011;48241;48.824;10.102;2022-08-19T04:31:15;35.55;;;31.33;;
62258;SDS011;48241;48.824;10.102;2022-08-19T04:33:42;34.15;;;30.52;;
62258;SDS011;48241;48.824;10.102;2022-08-19T04:36:08;33.72;;;30.13;;
62258;SDS011;48241;48.824;10.102;2022-08-19T04:38:41;35.67;;;31.83;;
62258;SDS011;48241;48.824;10.102;2022-08-19T04:41:06;35.65;;;31.95;;
62258;SDS011;48241;48.824;10.102;2022-08-19T04:43:50;35.15;;;31.27;;
62258;SDS011;48241;48.824;10.102;2022-08-19T04:46:16;35.22;;;31.42;;
62258;SDS011;48241;48.824;10.102;2022-08-19T04:48:42;34.13;;;30.45;;
62258;SDS011;48241;48.824;10.102;2022-08-19T04:51:09;33.88;;;30.17;;
62258;SDS011;48241;48.824;10.102;2022-08-19T04:53:38;34.75;;;31.15;;
62258;SDS011;48241;48.824;10.102;2022-08-19T04:56:06;36.97;;;31.42;;
62258;SDS011;48241;48.824;10.102;2022-08-19T04:58:35;33.55;;;30.08;;
62258;SDS011;48241;48.824;10.102;2022-08-19T05:01:02;35.03;;;30.90;;
62258;SDS011;48241;48.824;10.102;2022-08-19T05:03:28;34.53;;;30.92;;
62258;SDS011;48241;48.824;10.102;2022-08-19T05:05:57;34.50;;;30.77;;
62258;SDS011;48241;48.824;10.102;2022-08-19T05:08:23;33.42;;;29.88;;
62258;SDS011;48241;48.824;10.102;2022-08-19T05:10:50;33.70;;;30.10;;
62258;SDS011;48241;48.824;10.102;2022-08-19T05:13:18;33.30;;;29.77;;
62258;SDS011;48241;48.824;10.102;2022-08-19T05:15:44;33.42;;;29.83;;
62258;SDS011;48241;48.824;10.102;2022-08-19T05:18:19;33.00;;;29.52;;
62258;SDS011;48241;48.824;10.102;2022-08-19T05:21:10;32.40;;;28.98;;
62258;SDS011;48241;48.824;10.102;2022-08-19T05:23:56;32.58;;;29.13;;
62258;SDS011;48241;48.824;10.102;2022-08-19T05:26:22;33.50;;;29.73;;
62258;SDS011;48241;48.824;10.102;2022-08-19T05:28:48;33.55;;;30.05;;
62258;SDS011;48241;48.824;10.102;2022-08-19T05:31:14;34.00;;;30.38;;
62258;SDS011;48241;48.824;10.102;2022-08-19T05:33:39;33.30;;;29.70;;
62258;SDS011;48241;48.824;10.102;2022-08-19T05:36:05;34.50;;;30.73;;
62258;SDS011;48241;48.824;10.102;2022-08-19T05:38:32;33.58;;;29.98;;
62258;SDS011;48241;48.824;10.102;2022-08-19T05:40:58;33.85;;;30.27;;
62258;SDS011;48241;48.824;10.102;2022-08-19T05:43:24;34.20;;;30.60;;
62258;SDS011;48241;48.824;10.102;2022-08-19T05:45:50;34.22;;;30.73;;
62258;SDS011;48241;48.824;10.102;2022-08-19T05:48:16;33.35;;;29.88;;
62258;SDS011;48241;48.824;10.102;2022-08-19T05:50:45;34.30;;;29.98;;
62258;SDS011;48241;48.824;10.102;2022-08-19T05:53:11;33.47;;;30.02;;
62258;SDS011;48241;48.824;10.102;2022-08-19T05:55:37;33.78;;;30.27;;
62258;SDS011;48241;48.824;10.102;2022-08-19T05:58:04;34.13;;;29.98;;
62258;SDS011;48241;48.824;10.102;2022-08-19T06:00:32;34.13;;;29.98;;
62258;SDS011;48241;48.824;10.102;2022-08-19T06:02:58;32.03;;;28.63;;
62258;SDS011;48241;48.824;10.102;2022-08-19T06:05:28;31.92;;;28.63;;
62258;SDS011;48241;48.824;10.102;2022-08-19T06:07:54;32.90;;;29.45;;
62258;SDS011;48241;48.824;10.102;2022-08-19T06:10:20;32.20;;;28.77;;
62258;SDS011;48241;48.824;10.102;2022-08-19T06:12:46;33.35;;;29.50;;
62258;SDS011;48241;48.824;10.102;2022-08-19T06:15:12;33.63;;;29.17;;
62258;SDS011;48241;48.824;10.102;2022-08-19T06:17:40;31.92;;;27.98;;
62258;SDS011;48241;48.824;10.102;2022-08-19T06:20:07;33.80;;;29.40;;
62258;SDS011;48241;48.824;10.102;2022-08-19T06:22:43;33.13;;;29.48;;
62258;SDS011;48241;48.824;10.102;2022-08-19T06:25:10;31.92;;;28.63;;
62258;SDS011;48241;48.824;10.102;2022-08-19T06:27:37;33.42;;;29.77;;
62258;SDS011;48241;48.824;10.102;2022-08-19T06:30:03;35.60;;;28.55;;
62258;SDS011;48241;48.824;10.102;2022-08-19T06:32:30;35.90;;;30.00;;
62258;SDS011;48241;48.824;10.102;2022-08-19T06:34:56;33.90;;;30.30;;
62258;SDS011;48241;48.824;10.102;2022-08-19T06:37:21;36.85;;;30.80;;
62258;SDS011;48241;48.824;10.102;2022-08-19T06:39:47;34.33;;;30.15;;
62258;SDS011;48241;48.824;10.102;2022-08-19T06:42:13;36.35;;;29.75;;
62258;SDS011;48241;48.824;10.102;2022-08-19T06:44:43;37.20;;;30.33;;
62258;SDS011;48241;48.824;10.102;2022-08-19T06:47:12;34.45;;;30.30;;
62258;SDS011;48241;48.824;10.102;2022-08-19T06:49:39;33.35;;;29.63;;
62258;SDS011;48241;48.824;10.102;2022-08-19T06:52:05;34.75;;;29.92;;
62258;SDS011;48241;48.824;10.102;2022-08-19T06:54:31;34.85;;;30.23;;
62258;SDS011;48241;48.824;10.102;2022-08-19T06:56:57;34.00;;;30.33;;
62258;SDS011;48241;48.824;10.102;2022-08-19T06:59:26;34.50;;;30.80;;
62258;SDS011;48241;48.824;10.102;2022-08-19T07:01:54;35.28;;;30.33;;
62258;SDS011;48241;48.824;10.102;2022-08-19T07:04:23;35.55;;;30.60;;
62258;SDS011;48241;48.824;10.102;2022-08-19T07:06:57;32.85;;;29.23;;
62258;SDS011;48241;48.824;10.102;2022-08-19T07:09:26;34.92;;;30.48;;
62258;SDS011;48241;48.824;10.102;2022-08-19T07:11:53;34.45;;;30.70;;
62258;SDS011;48241;48.824;10.102;2022-08-19T07:14:21;32.25;;;28.80;;
62258;SDS011;48241;48.824;10.102;2022-08-19T07:16:50;33.65;;;30.05;;
62258;SDS011;48241;48.824;10.102;2022-08-19T07:19:18;33.47;;;29.90;;
62258;SDS011;48241;48.824;10.102;2022-08-19T07:21:44;32.28;;;28.80;;
62258;SDS011;48241;48.824;10.102;2022-08-19T07:24:11;32.90;;;28.73;;
62258;SDS011;48241;48.824;10.102;2022-08-19T07:26:38;35.75;;;29.92;;
62258;SDS011;48241;48.824;10.102;2022-08-19T07:29:06;33.80;;;29.38;;
62258;SDS011;48241;48.824;10.102;2022-08-19T07:31:32;33.58;;;29.83;;
62258;SDS011;48241;48.824;10.102;2022-08-19T07:34:02;32.90;;;29.25;;
62258;SDS011;48241;48.824;10.102;2022-08-19T07:36:33;33.30;;;28.85;;
62258;SDS011;48241;48.824;10.102;2022-08-19T07:39:03;33.15;;;29.13;;
62258;SDS011;48241;48.824;10.102;2022-08-19T07:41:31;36.03;;;30.85;;
62258;SDS011;48241;48.824;10.102;2022-08-19T07:43:58;35.17;;;30.40;;
62258;SDS011;48241;48.824;10.102;2022-08-19T07:46:28;33.03;;;29.48;;
62258;SDS011;48241;48.824;10.102;2022-08-19T07:48:55;33.85;;;30.17;;
62258;SDS011;48241;48.824;10.102;2022-08-19T07:51:21;33.92;;;28.52;;
62258;SDS011;48241;48.824;10.102;2022-08-19T07:53:47;34.00;;;29.58;;
62258;SDS011;48241;48.824;10.102;2022-08-19T07:56:15;32.60;;;28.80;;
62258;SDS011;48241;48.824;10.102;2022-08-19T07:58:44;32.13;;;28.20;;
62258;SDS011;48241;48.824;10.102;2022-08-19T08:01:12;33.67;;;28.80;;
62258;SDS011;48241;48.824;10.102;2022-08-19T08:03:40;33.35;;;28.48;;
62258;SDS011;48241;48.824;10.102;2022-08-19T08:06:25;33.53;;;28.70;;
62258;SDS011;48241;48.824;10.102;2022-08-19T08:09:10;33.90;;;29.17;;
62258;SDS011;48241;48.824;10.102;2022-08-19T08:11:36;31.80;;;28.38;;
62258;SDS011;48241;48.824;10.102;2022-08-19T08:14:26;32.10;;;28.70;;
62258;SDS011;48241;48.824;10.102;2022-08-19T08:16:57;31.58;;;28.17;;
62258;SDS011;48241;48.824;10.102;2022-08-19T08:19:24;32.72;;;28.88;;
62258;SDS011;48241;48.824;10.102;2022-08-19T08:21:53;31.88;;;28.35;;
62258;SDS011;48241;48.824;10.102;2022-08-19T08:24:19;31.17;;;27.77;;
62258;SDS011;48241;48.824;10.102;2022-08-19T08:26:45;31.52;;;28.05;;
62258;SDS011;48241;48.824;10.102;2022-08-19T08:29:11;31.83;;;28.42;;
62258;SDS011;48241;48.824;10.102;2022-08-19T08:31:39;30.23;;;26.20;;
62258;SDS011;48241;48.824;10.102;2022-08-19T08:34:05;31.15;;;27.85;;
62258;SDS011;48241;48.824;10.102;2022-08-19T08:36:32;31.10;;;27.73;;
62258;SDS011;48241;48.824;10.102;2022-08-19T08:38:59;32.05;;;27.88;;
62258;SDS011;48241;48.824;10.102;2022-08-19T08:41:45;33.47;;;29.33;;
62258;SDS011;48241;48.824;10.102;2022-08-19T08:44:22;31.92;;;27.58;;
62258;SDS011;48241;48.824;10.102;2022-08-19T08:46:55;34.13;;;27.98;;
62258;SDS011;48241;48.824;10.102;2022-08-19T08:54:30;33.25;;;29.75;;
62258;SDS011;48241;48.824;10.102;2022-08-19T08:57:06;30.88;;;27.58;;
62258;SDS011;48241;48.824;10.102;2022-08-19T08:59:36;30.77;;;27.48;;
62258;SDS011;48241;48.824;10.102;2022-08-19T09:02:04;31.60;;;28.23;;
62258;SDS011;48241;48.824;10.102;2022-08-19T09:04:29;32.38;;;28.98;;
62258;SDS011;48241;48.824;10.102;2022-08-19T09:12:03;32.20;;;28.25;;
62258;SDS011;48241;48.824;10.102;2022-08-19T09:17:11;29.80;;;26.58;;
62258;SDS011;48241;48.824;10.102;2022-08-19T09:22:25;33.53;;;27.73;;
62258;SDS011;48241;48.824;10.102;2022-08-19T09:24:52;34.22;;;26.77;;
62258;SDS011;48241;48.824;10.102;2022-08-19T09:27:19;33.92;;;27.42;;
62258;SDS011;48241;48.824;10.102;2022-08-19T09:32:18;29.70;;;26.60;;
62258;SDS011;48241;48.824;10.102;2022-08-19T09:34:45;28.70;;;25.67;;
62258;SDS011;48241;48.824;10.102;2022-08-19T09:37:10;28.80;;;25.33;;
62258;SDS011;48241;48.824;10.102;2022-08-19T09:39:37;28.65;;;24.48;;
62258;SDS011;48241;48.824;10.102;2022-08-19T09:42:05;29.15;;;25.98;;
62258;SDS011;48241;48.824;10.102;2022-08-19T09:44:36;27.48;;;24.35;;
62258;SDS011;48241;48.824;10.102;2022-08-19T09:47:06;30.25;;;25.40;;
62258;SDS011;48241;48.824;10.102;2022-08-19T09:49:32;31.67;;;25.67;;
62258;SDS011;48241;48.824;10.102;2022-08-19T09:51:58;29.80;;;25.60;;
62258;SDS011;48241;48.824;10.102;2022-08-19T09:54:32;29.25;;;24.98;;
62258;SDS011;48241;48.824;10.102;2022-08-19T09:56:59;29.83;;;25.00;;
62258;SDS011;48241;48.824;10.102;2022-08-19T09:59:28;30.50;;;26.13;;
62258;SDS011;48241;48.824;10.102;2022-08-19T10:01:54;31.08;;;26.00;;
62258;SDS011;48241;48.824;10.102;2022-08-19T10:04:20;30.55;;;24.45;;
62258;SDS011;48241;48.824;10.102;2022-08-19T10:06:46;27.55;;;24.52;;
62258;SDS011;48241;48.824;10.102;2022-08-19T10:09:14;29.42;;;25.77;;
62258;SDS011;48241;48.824;10.102;2022-08-19T10:11:41;30.10;;;24.98;;
62258;SDS011;48241;48.824;10.102;2022-08-19T10:14:08;27.73;;;24.83;;
62258;SDS011;48241;48.824;10.102;2022-08-19T10:16:35;30.13;;;25.23;;
62258;SDS011;48241;48.824;10.102;2022-08-19T10:19:02;29.13;;;25.98;;
62258;SDS011;48241;48.824;10.102;2022-08-19T10:21:29;31.85;;;25.58;;
62258;SDS011;48241;48.824;10.102;2022-08-19T10:23:56;28.48;;;25.00;;
62258;SDS011;48241;48.824;10.102;2022-08-19T10:26:25;29.02;;;25.33;;
62258;SDS011;48241;48.824;10.102;2022-08-19T10:28:53;27.40;;;24.50;;
62258;SDS011;48241;48.824;10.102;2022-08-19T10:31:23;29.40;;;25.15;;
62258;SDS011;48241;48.824;10.102;2022-08-19T10:33:53;28.02;;;25.02;;
62258;SDS011;48241;48.824;10.102;2022-08-19T10:36:24;30.33;;;24.55;;
62258;SDS011;48241;48.824;10.102;2022-08-19T10:38:56;29.27;;;25.35;;
62258;SDS011;48241;48.824;10.102;2022-08-19T10:41:25;29.92;;;25.42;;
62258;SDS011;48241;48.824;10.102;2022-08-19T10:43:53;28.35;;;25.35;;
62258;SDS011;48241;48.824;10.102;2022-08-19T10:46:20;32.15;;;26.23;;
62258;SDS011;48241;48.824;10.102;2022-08-19T10:48:47;31.63;;;26.70;;
62258;SDS011;48241;48.824;10.102;2022-08-19T10:51:14;29.48;;;25.90;;
62258;SDS011;48241;48.824;10.102;2022-08-19T10:53:59;28.92;;;25.02;;
62258;SDS011;48241;48.824;10.102;2022-08-19T10:56:25;32.03;;;26.88;;
62258;SDS011;48241;48.824;10.102;2022-08-19T10:59:10;30.02;;;25.05;;
62258;SDS011;48241;48.824;10.102;2022-08-19T11:01:37;30.15;;;26.13;;
62258;SDS011;48241;48.824;10.102;2022-08-19T11:04:03;32.35;;;27.77;;
62258;SDS011;48241;48.824;10.102;2022-08-19T11:06:33;36.45;;;29.45;;
62258;SDS011;48241;48.824;10.102;2022-08-19T11:08:59;37.13;;;29.63;;
62258;SDS011;48241;48.824;10.102;2022-08-19T11:11:25;40.85;;;32.40;;
62258;SDS011;48241;48.824;10.102;2022-08-19T11:13:53;38.97;;;31.90;;
62258;SDS011;48241;48.824;10.102;2022-08-19T11:16:20;38.70;;;32.67;;
62258;SDS011;48241;48.824;10.102;2022-08-19T11:18:49;44.50;;;35.47;;
62258;SDS011;48241;48.824;10.102;2022-08-19T11:21:38;45.00;;;36.63;;
62258;SDS011;48241;48.824;10.102;2022-08-19T11:24:06;51.65;;;38.53;;
62258;SDS011;48241;48.824;10.102;2022-08-19T11:26:37;51.30;;;39.13;;
62258;SDS011;48241;48.824;10.102;2022-08-19T11:29:04;50.67;;;38.85;;
62258;SDS011;48241;48.824;10.102;2022-08-19T11:31:32;52.63;;;38.97;;
62258;SDS011;48241;48.824;10.102;2022-08-19T11:34:02;53.50;;;40.40;;
62258;SDS011;48241;48.824;10.102;2022-08-19T11:36:29;55.75;;;39.80;;
62258;SDS011;48241;48.824;10.102;2022-08-19T11:38:56;58.72;;;41.30;;
62258;SDS011;48241;48.824;10.102;2022-08-19T11:41:22;53.78;;;39.42;;
62258;SDS011;48241;48.824;10.102;2022-08-19T11:43:49;53.65;;;39.38;;
62258;SDS011;48241;48.824;10.102;2022-08-19T11:46:17;49.08;;;38.38;;
62258;SDS011;48241;48.824;10.102;2022-08-19T11:48:43;45.45;;;34.67;;
62258;SDS011;48241;48.824;10.102;2022-08-19T11:51:10;44.53;;;34.95;;
62258;SDS011;48241;48.824;10.102;2022-08-19T11:53:38;41.75;;;33.38;;
62258;SDS011;48241;48.824;10.102;2022-08-19T11:56:04;46.92;;;34.88;;
62258;SDS011;48241;48.824;10.102;2022-08-19T11:58:31;46.92;;;36.85;;
62258;SDS011;48241;48.824;10.102;2022-08-19T12:00:57;46.55;;;36.17;;
62258;SDS011;48241;48.824;10.102;2022-08-19T12:03:23;44.88;;;34.55;;
62258;SDS011;48241;48.824;10.102;2022-08-19T12:05:49;45.22;;;34.97;;
62258;SDS011;48241;48.824;10.102;2022-08-19T12:08:15;42.22;;;34.58;;
62258;SDS011;48241;48.824;10.102;2022-08-19T12:10:41;45.65;;;34.60;;
62258;SDS011;48241;48.824;10.102;2022-08-19T12:13:08;44.50;;;34.05;;
62258;SDS011;48241;48.824;10.102;2022-08-19T12:15:39;41.92;;;32.63;;
62258;SDS011;48241;48.824;10.102;2022-08-19T12:18:08;40.50;;;32.58;;
62258;SDS011;48241;48.824;10.102;2022-08-19T12:20:35;40.08;;;32.05;;
62258;SDS011;48241;48.824;10.102;2022-08-19T12:23:02;40.40;;;32.95;;
62258;SDS011;48241;48.824;10.102;2022-08-19T12:25:28;40.17;;;33.08;;
62258;SDS011;48241;48.824;10.102;2022-08-19T12:27:55;39.65;;;31.85;;
62258;SDS011;48241;48.824;10.102;2022-08-19T12:30:21;40.03;;;33.83;;
62258;SDS011;48241;48.824;10.102;2022-08-19T12:32:47;40.42;;;33.22;;
62258;SDS011;48241;48.824;10.102;2022-08-19T12:35:12;41.75;;;34.30;;
62258;SDS011;48241;48.824;10.102;2022-08-19T12:37:38;40.50;;;33.38;;
62258;SDS011;48241;48.824;10.102;2022-08-19T12:40:09;40.47;;;33.70;;
62258;SDS011;48241;48.824;10.102;2022-08-19T12:42:36;43.75;;;32.90;;
62258;SDS011;48241;48.824;10.102;2022-08-19T12:45:07;39.85;;;33.13;;
62258;SDS011;48241;48.824;10.102;2022-08-19T12:47:36;37.53;;;30.38;;
62258;SDS011;48241;48.824;10.102;2022-08-19T12:50:02;39.58;;;32.65;;
62258;SDS011;48241;48.824;10.102;2022-08-19T12:52:34;41.78;;;34.15;;
62258;SDS011;48241;48.824;10.102;2022-08-19T12:55:04;39.13;;;31.90;;
62258;SDS011;48241;48.824;10.102;2022-08-19T12:57:31;34.88;;;29.48;;
62258;SDS011;48241;48.824;10.102;2022-08-19T13:00:08;35.95;;;29.92;;
62258;SDS011;48241;48.824;10.102;2022-08-19T13:02:38;33.75;;;28.27;;
62258;SDS011;48241;48.824;10.102;2022-08-19T13:05:07;35.75;;;30.08;;
62258;SDS011;48241;48.824;10.102;2022-08-19T13:07:33;37.33;;;30.77;;
62258;SDS011;48241;48.824;10.102;2022-08-19T13:10:00;38.05;;;30.45;;
62258;SDS011;48241;48.824;10.102;2022-08-19T13:12:26;39.17;;;31.67;;
62258;SDS011;48241;48.824;10.102;2022-08-19T13:14:52;39.58;;;32.08;;
62258;SDS011;48241;48.824;10.102;2022-08-19T13:17:19;40.08;;;30.83;;
62258;SDS011;48241;48.824;10.102;2022-08-19T13:19:45;33.97;;;26.90;;
62258;SDS011;48241;48.824;10.102;2022-08-19T13:22:10;31.75;;;24.02;;
62258;SDS011;48241;48.824;10.102;2022-08-19T13:24:37;24.77;;;20.73;;
62258;SDS011;48241;48.824;10.102;2022-08-19T13:27:03;21.70;;;17.58;;
62258;SDS011;48241;48.824;10.102;2022-08-19T13:29:29;17.83;;;15.13;;
62258;SDS011;48241;48.824;10.102;2022-08-19T13:32:13;18.05;;;15.40;;
62258;SDS011;48241;48.824;10.102;2022-08-19T13:34:57;19.80;;;17.80;;
62258;SDS011;48241;48.824;10.102;2022-08-19T13:37:23;18.33;;;16.42;;
62258;SDS011;48241;48.824;10.102;2022-08-19T13:40:06;17.27;;;15.45;;
62258;SDS011;48241;48.824;10.102;2022-08-19T13:42:39;20.15;;;17.08;;
62258;SDS011;48241;48.824;10.102;2022-08-19T13:45:05;20.20;;;18.10;;
62258;SDS011;48241;48.824;10.102;2022-08-19T13:47:32;20.05;;;18.05;;
62258;SDS011;48241;48.824;10.102;2022-08-19T13:49:59;22.45;;;18.45;;
62258;SDS011;48241;48.824;10.102;2022-08-19T13:52:28;18.98;;;16.98;;
62258;SDS011;48241;48.824;10.102;2022-08-19T13:54:54;22.08;;;19.15;;
62258;SDS011;48241;48.824;10.102;2022-08-19T13:57:21;21.17;;;18.98;;
62258;SDS011;48241;48.824;10.102;2022-08-19T13:59:47;22.27;;;19.77;;
62258;SDS011;48241;48.824;10.102;2022-08-19T14:02:13;21.10;;;18.73;;
62258;SDS011;48241;48.824;10.102;2022-08-19T14:04:38;22.17;;;19.42;;
62258;SDS011;48241;48.824;10.102;2022-08-19T14:07:04;22.52;;;19.48;;
62258;SDS011;48241;48.824;10.102;2022-08-19T14:09:30;22.10;;;19.80;;
62258;SDS011;48241;48.824;10.102;2022-08-19T14:11:56;25.80;;;21.58;;
62258;SDS011;48241;48.824;10.102;2022-08-19T14:14:22;22.45;;;20.05;;
62258;SDS011;48241;48.824;10.102;2022-08-19T14:16:48;26.58;;;22.00;;
62258;SDS011;48241;48.824;10.102;2022-08-19T14:19:14;24.42;;;21.08;;
62258;SDS011;48241;48.824;10.102;2022-08-19T14:21:40;22.60;;;20.20;;
62258;SDS011;48241;48.824;10.102;2022-08-19T14:24:06;25.98;;;19.88;;
62258;SDS011;48241;48.824;10.102;2022-08-19T14:26:33;23.58;;;19.67;;
62258;SDS011;48241;48.824;10.102;2022-08-19T14:28:58;22.08;;;19.65;;
62258;SDS011;48241;48.824;10.102;2022-08-19T14:31:26;23.17;;;19.88;;
62258;SDS011;48241;48.824;10.102;2022-08-19T14:33:52;25.70;;;19.98;;
62258;SDS011;48241;48.824;10.102;2022-08-19T14:36:18;22.27;;;19.40;;